Terminal Aerodrome Forecast
Issued by NWS

Home | Current Version | Previous Version | Text Only | Print | Product List | Glossary On
Versions: 1 2 3 4 5 6 7 8 9 10 11 12 13 14 15 16 17 18 19
000
FTUS44 KLIX 291124
TAFMSY
TAF
KMSY 291124Z 2912/3012 14007KT 5SM BR OVC005
     FM291400 15011KT P6SM BKN015
     FM291600 15013KT P6SM BKN050
     FM300000 15009KT P6SM SCT200
     FM300600 15010KT P6SM BKN050
     FM300800 15009KT P6SM OVC015=

USA.gov is the U.S. government's official web portal to all federal, state and local government web resources and services.